createdAt,value
2019-05-01T00:00:34.235Z,30.10
2019-05-01T00:02:09.697Z,29.85
2019-05-01T00:03:33.295Z,28.75
2019-05-01T00:04:52.573Z,30.68
2019-05-01T00:05:58.849Z,29.23
2019-05-01T00:07:08.690Z,29.52
2019-05-01T00:08:16.123Z,29.00
2019-05-01T00:09:21.678Z,29.98
2019-05-01T00:10:26.794Z,29.27
2019-05-01T00:11:31.283Z,30.27
2019-05-01T00:12:35.967Z,30.72
2019-05-01T00:13:40.946Z,29.15
2019-05-01T00:14:46.003Z,29.23
2019-05-01T00:15:52.085Z,28.55
2019-05-01T00:16:57.152Z,28.67
2019-05-01T00:18:02.158Z,29.12
2019-05-01T00:19:06.895Z,28.32
2019-05-01T00:20:12.474Z,28.92
2019-05-01T00:21:17.567Z,27.13
2019-05-01T00:22:22.296Z,27.93
2019-05-01T00:23:27.631Z,28.17
2019-05-01T00:24:32.595Z,27.67
2019-05-01T00:25:37.362Z,28.50
2019-05-01T00:26:42.342Z,27.80
2019-05-01T00:27:47.052Z,27.80
2019-05-01T00:28:51.790Z,27.58
2019-05-01T00:29:56.779Z,28.35
2019-05-01T00:31:01.759Z,28.00
2019-05-01T00:32:06.772Z,28.00
2019-05-01T00:33:11.759Z,27.58
2019-05-01T00:34:16.719Z,27.52
2019-05-01T00:35:21.738Z,28.47
2019-05-01T00:36:27.028Z,27.70
2019-05-01T00:37:32.000Z,28.47
2019-05-01T00:38:37.228Z,28.10
2019-05-01T00:39:42.396Z,28.77
2019-05-01T00:40:47.436Z,28.57
2019-05-01T00:41:52.693Z,29.35
2019-05-01T00:42:58.392Z,28.98
2019-05-01T00:44:03.304Z,28.25
2019-05-01T00:45:07.852Z,29.70
2019-05-01T00:46:12.554Z,28.12
2019-05-01T00:47:17.264Z,29.42
2019-05-01T00:48:21.719Z,29.40
2019-05-01T00:49:26.676Z,28.80
2019-05-01T00:50:31.649Z,28.35
2019-05-01T00:51:36.596Z,28.40
2019-05-01T00:52:41.663Z,27.75
2019-05-01T00:53:46.645Z,27.58
2019-05-01T00:54:52.791Z,28.77
2019-05-01T00:56:04.401Z,29.32
2019-05-01T00:57:34.343Z,29.30
2019-05-01T00:58:53.526Z,28.50
2019-05-01T01:00:16.169Z,29.42
2019-05-01T01:01:39.099Z,28.42
2019-05-01T01:02:47.651Z,27.07
2019-05-01T01:03:52.930Z,28.80
2019-05-01T01:04:58.488Z,27.80
2019-05-01T01:06:04.138Z,28.92
2019-05-01T01:07:09.106Z,27.82
2019-05-01T01:08:13.821Z,29.90
2019-05-01T01:09:19.126Z,29.63
2019-05-01T01:10:23.822Z,29.77
2019-05-01T01:11:28.661Z,29.18
2019-05-01T01:12:33.649Z,29.80
2019-05-01T01:13:38.931Z,28.32
2019-05-01T01:14:43.913Z,30.35
2019-05-01T01:15:48.639Z,29.95
2019-05-01T01:16:53.408Z,30.45
2019-05-01T01:17:58.683Z,29.40
2019-05-01T01:19:03.719Z,28.25
2019-05-01T01:20:08.834Z,29.77
2019-05-01T01:21:13.829Z,28.62
2019-05-01T01:22:18.792Z,31.15
2019-05-01T01:23:24.008Z,31.05
2019-05-01T01:24:29.704Z,30.57
2019-05-01T01:25:35.108Z,30.68
2019-05-01T01:26:40.344Z,29.42
2019-05-01T01:27:45.234Z,31.50
2019-05-01T01:28:50.507Z,29.48
2019-05-01T01:29:55.756Z,30.45
2019-05-01T01:31:00.229Z,31.12
2019-05-01T01:32:05.377Z,30.95
2019-05-01T01:33:10.395Z,30.82
2019-05-01T01:34:15.676Z,31.57
2019-05-01T01:35:20.884Z,31.52
2019-05-01T01:36:25.407Z,31.33
2019-05-01T01:37:31.092Z,32.25
2019-05-01T01:38:36.118Z,32.33
2019-05-01T01:39:40.840Z,31.82
2019-05-01T01:40:45.788Z,30.82
2019-05-01T01:41:50.901Z,30.50
2019-05-01T01:42:58.808Z,32.03
2019-05-01T01:44:25.017Z,32.35
2019-05-01T01:45:40.902Z,31.77
2019-05-01T01:46:45.711Z,30.57
2019-05-01T01:48:10.277Z,31.50
2019-05-01T01:49:16.122Z,31.27
2019-05-01T01:50:21.171Z,30.55
2019-05-01T01:51:25.911Z,30.75
2019-05-01T01:52:30.945Z,32.13
2019-05-01T01:53:35.764Z,31.80
2019-05-01T01:54:40.750Z,32.53
2019-05-01T01:55:46.166Z,32.28
2019-05-01T01:56:51.144Z,32.20
2019-05-01T01:57:56.923Z,32.13
2019-05-01T01:59:02.025Z,32.20
2019-05-01T02:00:08.384Z,31.35
2019-05-01T02:01:41.924Z,31.93
2019-05-01T02:02:51.629Z,31.48
2019-05-01T02:04:00.663Z,31.37
2019-05-01T02:05:11.755Z,32.13
2019-05-01T02:06:17.286Z,33.73
2019-05-01T02:07:22.348Z,32.48
2019-05-01T02:08:27.094Z,32.00
2019-05-01T02:09:32.084Z,31.93
2019-05-01T02:10:43.026Z,32.10
2019-05-01T02:11:42.810Z,31.97
2019-05-01T02:12:48.188Z,33.75
2019-05-01T02:13:56.690Z,32.60
2019-05-01T02:15:02.013Z,35.38
2019-05-01T02:16:07.028Z,34.25
2019-05-01T02:17:12.015Z,35.30
2019-05-01T02:18:17.583Z,35.25
2019-05-01T02:19:23.192Z,37.25
2019-05-01T02:20:27.915Z,34.65
2019-05-01T02:21:32.627Z,35.65
2019-05-01T02:22:37.157Z,37.35
2019-05-01T02:23:41.610Z,36.38
2019-05-01T02:24:46.595Z,35.73
2019-05-01T02:25:51.757Z,36.20
2019-05-01T02:26:58.358Z,35.88
2019-05-01T02:28:32.347Z,34.78
2019-05-01T02:29:43.865Z,34.48
2019-05-01T02:31:07.721Z,35.43
2019-05-01T02:32:12.167Z,33.23
2019-05-01T02:33:17.264Z,35.95
2019-05-01T02:34:24.612Z,36.15
2019-05-01T02:35:31.629Z,36.90
2019-05-01T02:36:37.488Z,35.48
2019-05-01T02:37:43.369Z,38.20
2019-05-01T02:38:50.452Z,38.78
2019-05-01T02:39:57.855Z,38.92
2019-05-01T02:41:04.247Z,39.63
2019-05-01T02:42:12.057Z,40.33
2019-05-01T02:43:18.860Z,39.67
2019-05-01T02:44:32.561Z,41.00
2019-05-01T02:45:38.713Z,39.50
2019-05-01T02:46:45.951Z,41.53
2019-05-01T02:47:51.064Z,40.50
2019-05-01T02:49:05.159Z,40.45
2019-05-01T02:50:12.091Z,41.42
2019-05-01T02:51:19.398Z,39.75
2019-05-01T02:52:27.898Z,38.65
2019-05-01T02:53:34.139Z,40.85
2019-05-01T02:54:40.421Z,39.48
2019-05-01T02:55:50.394Z,38.60
2019-05-01T02:57:00.009Z,38.17
2019-05-01T02:58:04.841Z,38.58
2019-05-01T02:59:11.007Z,39.45
2019-05-01T03:00:17.008Z,36.90
2019-05-01T03:01:22.127Z,38.20
2019-05-01T03:02:29.416Z,38.63
2019-05-01T03:03:34.790Z,36.70
2019-05-01T03:04:40.861Z,35.50
2019-05-01T03:05:45.848Z,34.45
2019-05-01T03:06:51.683Z,35.23
2019-05-01T03:07:56.373Z,34.48
2019-05-01T03:09:04.145Z,35.63
2019-05-01T03:10:10.150Z,35.15
2019-05-01T03:11:15.174Z,38.33
2019-05-01T03:12:22.913Z,38.23
2019-05-01T03:13:28.209Z,40.65
2019-05-01T03:14:35.058Z,40.83
2019-05-01T03:15:40.187Z,40.92
2019-05-01T03:16:46.983Z,40.65
2019-05-01T03:18:01.466Z,39.88
2019-05-01T03:19:10.462Z,39.10
2019-05-01T03:20:50.509Z,39.88
2019-05-01T03:22:04.773Z,38.73
2019-05-01T03:23:17.469Z,39.88
2019-05-01T03:24:24.434Z,38.53
2019-05-01T03:25:29.599Z,40.43
2019-05-01T03:26:35.424Z,38.85
2019-05-01T03:27:42.051Z,40.92
2019-05-01T03:28:47.267Z,39.58
2019-05-01T03:29:51.821Z,40.65
2019-05-01T03:30:57.480Z,40.80
2019-05-01T03:32:16.692Z,42.13
2019-05-01T03:33:10.056Z,41.48
2019-05-01T03:34:15.456Z,42.70
2019-05-01T03:35:20.448Z,41.42
2019-05-01T03:36:25.248Z,42.45
2019-05-01T03:37:33.124Z,43.78
2019-05-01T03:38:38.575Z,43.35
2019-05-01T03:39:44.134Z,42.35
2019-05-01T03:40:52.312Z,44.40
2019-05-01T03:41:57.334Z,43.33
2019-05-01T03:43:02.661Z,46.83
2019-05-01T03:44:07.269Z,44.35
2019-05-01T03:45:12.016Z,45.73
2019-05-01T03:46:18.140Z,46.68
2019-05-01T03:47:23.338Z,47.93
2019-05-01T03:48:28.426Z,46.68
2019-05-01T03:49:33.510Z,47.27
2019-05-01T03:50:38.778Z,46.18
2019-05-01T03:51:43.847Z,47.62
2019-05-01T03:52:48.597Z,48.00
2019-05-01T08:55:47.195Z,53.45
2019-05-01T09:02:10.204Z,53.23
2019-05-01T09:03:29.874Z,54.42
2019-05-01T09:07:19.250Z,49.85
2019-05-01T09:11:57.581Z,50.58
2019-05-01T09:15:51.422Z,51.85
2019-05-01T09:15:57.700Z,47.67
2019-05-01T09:17:06.164Z,49.70
2019-05-01T09:18:44.207Z,50.67
2019-05-01T09:20:01.600Z,50.92
2019-05-01T09:21:14.167Z,50.73
2019-05-01T09:22:22.125Z,52.08
2019-05-01T09:23:34.417Z,53.42
2019-05-01T09:25:10.025Z,53.95
2019-05-01T09:27:05.018Z,53.52
2019-05-01T09:28:27.436Z,50.95
2019-05-01T09:29:51.558Z,49.25
2019-05-01T09:31:03.189Z,51.85
2019-05-01T09:32:11.912Z,53.68
2019-05-01T09:33:49.781Z,53.50
2019-05-01T09:35:15.102Z,52.20
2019-05-01T09:36:21.353Z,51.92
2019-05-01T09:38:04.948Z,53.38
2019-05-01T09:39:20.258Z,51.92
2019-05-01T09:40:30.187Z,53.70
2019-05-01T09:42:01.360Z,52.53
2019-05-01T09:43:23.791Z,52.35
2019-05-01T09:44:39.039Z,53.70
2019-05-01T09:45:46.642Z,55.45
2019-05-01T09:47:10.892Z,54.75
2019-05-01T09:48:22.411Z,53.73
2019-05-01T09:49:37.245Z,53.92
2019-05-01T09:50:51.291Z,55.55
2019-05-01T09:52:24.870Z,54.13
2019-05-01T09:53:56.987Z,55.08
2019-05-01T09:55:11.941Z,53.28
2019-05-01T09:56:46.059Z,55.50
2019-05-01T09:57:56.017Z,55.33
2019-05-01T09:59:25.644Z,54.65
2019-05-01T10:00:48.775Z,55.78
2019-05-01T10:02:02.957Z,57.33
2019-05-01T10:03:07.793Z,58.75
2019-05-01T10:04:25.347Z,60.23
2019-05-01T10:05:31.268Z,57.90
2019-05-01T10:06:57.218Z,60.80
2019-05-01T10:08:25.639Z,60.00
2019-05-01T10:09:52.249Z,60.95
2019-05-01T10:11:06.877Z,59.58
2019-05-01T10:12:33.391Z,59.70
2019-05-01T10:14:11.678Z,61.23
2019-05-01T10:15:42.343Z,58.35
2019-05-01T10:16:53.344Z,58.40
2019-05-01T10:17:59.949Z,57.10
2019-05-01T10:19:33.561Z,58.70
2019-05-01T10:20:40.707Z,57.00
2019-05-01T10:21:57.817Z,58.78
2019-05-01T10:23:53.197Z,61.63
2019-05-01T10:25:08.576Z,59.42
2019-05-01T10:26:32.402Z,61.35
2019-05-01T10:27:39.862Z,60.55
2019-05-01T10:28:54.750Z,62.73
2019-05-01T10:30:12.039Z,60.67
2019-05-01T10:31:21.025Z,61.92
2019-05-01T10:32:39.324Z,62.88
2019-05-01T10:33:46.291Z,60.38
2019-05-01T10:34:58.600Z,62.08
2019-05-01T10:36:31.064Z,62.75
2019-05-01T10:37:35.744Z,64.07
2019-05-01T10:38:44.970Z,63.08
2019-05-01T10:39:50.229Z,62.00
2019-05-01T10:40:54.508Z,61.83
2019-05-01T10:41:59.506Z,62.40
2019-05-01T10:43:04.700Z,63.45
2019-05-01T10:44:09.681Z,62.50
2019-05-01T10:45:14.479Z,61.25
2019-05-01T10:46:19.459Z,62.93
2019-05-01T10:47:24.191Z,64.10
2019-05-01T10:48:28.965Z,63.70
2019-05-01T10:49:33.968Z,66.40
2019-05-01T10:50:38.684Z,63.85
2019-05-01T10:51:43.665Z,62.08
2019-05-01T10:52:48.636Z,63.87
2019-05-01T10:53:53.320Z,65.78
2019-05-01T10:54:58.593Z,64.55
2019-05-01T10:56:03.588Z,65.08
2019-05-01T10:57:08.589Z,66.70
2019-05-01T10:58:18.271Z,64.00
2019-05-01T10:59:20.837Z,67.82
2019-05-01T11:00:25.482Z,63.68
2019-05-01T11:01:49.807Z,64.35
2019-05-01T11:02:54.535Z,65.72
2019-05-01T11:03:59.525Z,63.73
2019-05-01T11:05:04.218Z,62.73
2019-05-01T11:06:09.201Z,63.02
2019-05-01T11:07:14.469Z,62.40
2019-05-01T11:08:19.984Z,65.75
2019-05-01T11:09:25.179Z,61.92
2019-05-01T11:10:30.237Z,63.83
2019-05-01T11:11:35.506Z,64.77
2019-05-01T11:12:40.647Z,61.68
2019-05-01T11:13:45.621Z,62.53
2019-05-01T11:14:50.309Z,63.73
2019-05-01T11:15:55.012Z,65.80
2019-05-01T11:17:00.029Z,63.25
2019-05-01T11:18:04.851Z,63.50
2019-05-01T11:19:10.135Z,63.15
2019-05-01T11:20:15.078Z,63.80
2019-05-01T11:21:19.583Z,64.80
2019-05-01T11:22:24.866Z,65.00
2019-05-01T11:23:30.137Z,65.83
2019-05-01T11:24:35.355Z,64.45
2019-05-01T11:25:40.252Z,69.62
2019-05-01T11:26:45.303Z,65.65
2019-05-01T11:27:50.289Z,67.97
2019-05-01T11:28:55.273Z,67.17
2019-05-01T11:29:59.972Z,66.57
2019-05-01T11:31:05.816Z,69.37
2019-05-01T11:32:27.019Z,67.50
2019-05-01T11:33:57.230Z,68.90
2019-05-01T11:35:13.669Z,64.95
2019-05-01T11:36:40.216Z,64.72
2019-05-01T11:38:01.871Z,63.35
2019-05-01T11:39:30.264Z,63.10
2019-05-01T11:40:37.786Z,60.15
2019-05-01T11:41:47.370Z,62.45
2019-05-01T11:42:52.350Z,64.58
2019-05-01T11:43:57.041Z,61.88
2019-05-01T11:45:01.805Z,65.67
2019-05-01T11:46:06.795Z,68.55
2019-05-01T11:47:11.486Z,68.70
2019-05-01T11:48:16.466Z,68.80
2019-05-01T11:49:21.453Z,66.67
2019-05-01T11:50:26.170Z,66.67
2019-05-01T11:51:31.182Z,66.92
2019-05-01T11:52:36.457Z,67.12
2019-05-01T11:53:41.725Z,67.25
2019-05-01T11:54:46.694Z,69.55
2019-05-01T11:55:51.690Z,67.70
2019-05-01T11:56:57.037Z,65.60
2019-05-01T11:58:02.594Z,67.12
2019-05-01T11:59:07.893Z,68.33
2019-05-01T12:00:15.005Z,66.70
2019-05-01T12:01:21.381Z,65.08
2019-05-01T12:02:26.156Z,63.98
2019-05-01T12:03:31.158Z,65.55
2019-05-01T12:04:36.119Z,65.90
2019-05-01T12:05:40.816Z,65.70
2019-05-01T12:06:45.931Z,66.53
2019-05-01T12:07:50.725Z,69.45
2019-05-01T12:08:55.924Z,68.55
2019-05-01T12:10:00.934Z,66.37
2019-05-01T12:11:07.164Z,67.55
2019-05-01T12:12:14.266Z,65.55
2019-05-01T12:13:19.332Z,67.12
2019-05-01T12:14:24.077Z,66.30
2019-05-01T12:15:28.864Z,66.82
2019-05-01T12:16:51.219Z,68.85
2019-05-01T12:17:56.257Z,67.17
2019-05-01T12:19:01.255Z,64.60
2019-05-01T12:20:07.035Z,65.78
2019-05-01T12:21:11.485Z,64.12
2019-05-01T12:22:16.231Z,66.50
2019-05-01T12:23:20.948Z,64.55
2019-05-01T12:24:25.642Z,64.90
2019-05-01T12:25:30.191Z,63.42
2019-05-01T12:26:34.892Z,64.00
2019-05-01T12:27:39.626Z,62.10
2019-05-01T12:28:44.593Z,60.95
2019-05-01T12:29:49.333Z,62.60
2019-05-01T12:30:54.637Z,59.67
2019-05-01T12:31:59.398Z,61.77
2019-05-01T12:33:04.358Z,64.10
2019-05-01T12:34:09.111Z,64.37
2019-05-01T12:35:13.967Z,60.83
2019-05-01T12:36:18.764Z,59.63
2019-05-01T12:37:42.620Z,61.20
2019-05-01T12:38:47.590Z,58.92
2019-05-01T12:39:52.581Z,58.50
2019-05-01T12:41:15.031Z,60.48
2019-05-01T12:42:21.714Z,57.45
2019-05-01T12:43:26.684Z,58.45
2019-05-01T12:44:31.732Z,58.83
2019-05-01T12:45:37.003Z,59.15
2019-05-01T12:46:47.526Z,59.40
2019-05-01T12:47:54.169Z,64.22
2019-05-01T12:48:59.087Z,62.25
2019-05-01T12:50:03.889Z,58.40
2019-05-01T12:51:09.179Z,56.70
2019-05-01T12:52:20.712Z,58.33
2019-05-01T12:53:35.250Z,58.80
2019-05-01T12:54:54.875Z,61.10
2019-05-01T12:56:18.470Z,61.60
2019-05-01T12:57:23.534Z,52.20
2019-05-01T12:58:28.836Z,53.38
2019-05-01T12:59:33.908Z,52.80
2019-05-01T13:00:42.957Z,53.52
2019-05-01T13:01:47.927Z,51.50
2019-05-01T13:02:52.913Z,48.68
2019-05-01T13:03:57.997Z,49.65
2019-05-01T13:05:02.768Z,51.13
2019-05-01T13:06:07.754Z,50.12
2019-05-01T13:07:12.929Z,49.63
2019-05-01T13:08:17.644Z,48.75
2019-05-01T13:09:22.355Z,49.03
2019-05-01T13:10:27.473Z,48.83
2019-05-01T13:11:32.713Z,48.90
2019-05-01T13:12:37.694Z,49.45
2019-05-01T13:13:42.958Z,50.48
2019-05-01T13:14:47.993Z,52.50
2019-05-01T13:15:52.716Z,52.67
2019-05-01T13:16:57.692Z,51.80
2019-05-01T13:18:02.653Z,51.40
2019-05-01T13:19:07.679Z,52.53
2019-05-01T13:20:12.388Z,50.65
2019-05-01T13:21:17.846Z,52.13
2019-05-01T13:22:22.583Z,51.70
2019-05-01T13:23:27.996Z,50.98
2019-05-01T13:24:33.247Z,48.55
2019-05-01T13:25:38.211Z,50.20
2019-05-01T13:26:48.208Z,50.10
2019-05-01T13:27:58.094Z,51.92
2019-05-01T13:29:10.443Z,52.08
2019-05-01T13:30:25.789Z,50.78
2019-05-01T13:31:46.803Z,49.23
2019-05-01T13:32:52.910Z,46.37
2019-05-01T13:33:57.342Z,49.48
2019-05-01T13:35:02.361Z,49.48
2019-05-01T13:36:07.057Z,48.95
2019-05-01T13:37:12.023Z,49.45
2019-05-01T13:38:17.041Z,49.95
2019-05-01T13:39:22.366Z,51.85
2019-05-01T13:40:27.961Z,54.73
2019-05-01T13:41:32.749Z,53.50
2019-05-01T13:42:37.725Z,52.08
2019-05-01T13:43:42.708Z,52.35
2019-05-01T13:44:47.987Z,53.90
2019-05-01T13:45:53.549Z,53.65
2019-05-01T13:46:58.034Z,50.55
2019-05-01T13:48:03.011Z,49.60
2019-05-01T13:49:09.389Z,49.65
2019-05-01T13:50:14.342Z,50.08
2019-05-01T13:51:19.705Z,48.63
2019-05-01T13:52:24.698Z,48.45
2019-05-01T13:53:32.763Z,48.33
2019-05-01T13:54:38.041Z,48.30
2019-05-01T13:55:43.023Z,47.35
2019-05-01T13:56:48.028Z,48.25
2019-05-01T13:57:52.766Z,47.60
2019-05-01T13:58:57.605Z,46.18
2019-05-01T14:00:02.353Z,47.08
2019-05-01T14:01:07.036Z,47.35
2019-05-01T14:02:11.865Z,46.40
2019-05-01T14:03:16.837Z,44.53
2019-05-01T14:04:21.821Z,44.90
2019-05-01T14:05:27.170Z,44.90
2019-05-01T14:06:32.155Z,44.35
2019-05-01T14:07:36.927Z,45.40
2019-05-01T14:08:43.197Z,43.42
2019-05-01T14:09:47.994Z,43.65
2019-05-01T14:10:53.625Z,43.02
2019-05-01T14:11:58.718Z,42.27
2019-05-01T14:13:03.693Z,41.20
2019-05-01T14:14:08.665Z,42.10
2019-05-01T14:15:13.465Z,42.75
2019-05-01T14:16:18.470Z,42.58
2019-05-01T14:17:23.471Z,41.90
2019-05-01T14:18:28.196Z,41.00
2019-05-01T14:19:34.175Z,40.00
2019-05-01T14:20:47.155Z,39.85
2019-05-01T14:22:01.734Z,38.92
2019-05-01T14:23:19.358Z,39.20
2019-05-01T14:24:36.706Z,39.42
2019-05-01T14:25:59.150Z,40.78
2019-05-01T14:27:03.893Z,38.02
2019-05-01T14:28:08.595Z,38.67
2019-05-01T14:29:13.611Z,40.98
2019-05-01T14:30:18.343Z,40.48
2019-05-01T14:31:23.624Z,41.35
2019-05-01T14:32:28.341Z,39.70
2019-05-01T14:33:33.346Z,39.55
2019-05-01T14:34:38.337Z,39.15
2019-05-01T14:35:43.325Z,41.35
2019-05-01T14:36:47.800Z,40.98
2019-05-01T14:37:53.034Z,40.35
2019-05-01T14:38:58.024Z,40.33
2019-05-01T14:40:03.448Z,40.45
2019-05-01T14:41:08.506Z,41.45
2019-05-01T14:42:13.256Z,42.33
2019-05-01T14:43:18.243Z,41.20
2019-05-01T14:44:22.746Z,42.83
2019-05-01T14:45:28.718Z,43.90
2019-05-01T14:46:33.393Z,44.60
2019-05-01T14:47:38.403Z,43.60
2019-05-01T14:48:43.954Z,40.08
2019-05-01T14:49:48.970Z,41.85
2019-05-01T14:50:53.660Z,41.58
2019-05-01T14:51:58.662Z,41.98
2019-05-01T14:53:03.456Z,41.33
2019-05-01T14:54:08.447Z,41.20
2019-05-01T14:55:13.172Z,41.23
2019-05-01T14:56:17.973Z,44.00
2019-05-01T14:57:23.031Z,42.62
2019-05-01T14:58:28.384Z,42.85
2019-05-01T14:59:33.926Z,44.58
2019-05-01T15:00:38.644Z,40.55
2019-05-01T15:01:43.644Z,41.68
2019-05-01T15:02:48.949Z,41.92
2019-05-01T15:03:53.639Z,42.13
2019-05-01T15:04:59.229Z,43.08
2019-05-01T15:06:04.287Z,45.70
2019-05-01T15:07:11.249Z,42.75
2019-05-01T15:08:15.734Z,42.20
2019-05-01T15:09:20.414Z,44.40
2019-05-01T15:10:25.397Z,43.42
2019-05-01T15:11:30.100Z,43.48
2019-05-01T15:12:34.717Z,44.05
2019-05-01T15:13:55.388Z,42.00
2019-05-01T15:15:12.026Z,43.10
2019-05-01T15:16:36.211Z,43.40
2019-05-01T15:17:51.863Z,41.50
2019-05-01T15:19:16.026Z,40.23
2019-05-01T15:20:21.052Z,41.65
2019-05-01T15:21:26.101Z,41.30
2019-05-01T15:22:31.389Z,38.73
2019-05-01T15:23:36.945Z,39.88
2019-05-01T15:24:41.936Z,41.13
2019-05-01T15:25:46.906Z,40.78
2019-05-01T15:26:51.608Z,40.88
2019-05-01T15:27:57.127Z,39.30
2019-05-01T15:29:02.713Z,39.35
2019-05-01T15:30:08.160Z,39.85
2019-05-01T15:31:13.433Z,39.58
2019-05-01T15:32:18.728Z,39.42
2019-05-01T15:33:23.743Z,37.67
2019-05-01T15:34:28.567Z,40.55
2019-05-01T15:35:33.262Z,39.95
2019-05-01T15:36:38.254Z,40.88
2019-05-01T15:37:55.765Z,37.35
2019-05-01T15:38:50.230Z,39.42
2019-05-01T15:39:58.885Z,39.00
2019-05-01T15:41:10.458Z,38.60
2019-05-01T15:42:25.010Z,37.85
2019-05-01T15:43:31.696Z,38.25
2019-05-01T15:44:37.251Z,38.53
2019-05-01T15:45:42.202Z,38.48
2019-05-01T15:46:47.270Z,37.95
2019-05-01T15:47:52.546Z,39.55
2019-05-01T15:48:57.250Z,40.55
2019-05-01T15:50:02.265Z,40.28
2019-05-01T15:51:07.484Z,39.80
2019-05-01T15:52:12.460Z,38.80
2019-05-01T15:53:17.738Z,38.17
2019-05-01T15:54:22.973Z,39.60
2019-05-01T15:55:28.962Z,39.23
2019-05-01T15:56:33.641Z,39.90
2019-05-01T15:57:38.639Z,39.98
2019-05-01T15:58:43.628Z,38.67
2019-05-01T15:59:48.406Z,38.75
2019-05-01T16:00:53.473Z,39.27
2019-05-01T16:01:58.516Z,38.83
2019-05-01T16:03:03.820Z,39.67
2019-05-01T16:04:08.552Z,38.05
2019-05-01T16:05:13.363Z,37.25
2019-05-01T16:06:18.624Z,38.17
2019-05-01T16:07:23.337Z,37.53
2019-05-01T16:08:28.124Z,38.40
2019-05-01T16:09:32.843Z,37.67
2019-05-01T16:10:44.220Z,38.25
2019-05-01T16:12:13.745Z,39.13
2019-05-01T16:13:18.753Z,38.35
2019-05-01T16:14:23.745Z,38.35
2019-05-01T16:15:30.963Z,38.53
2019-05-01T16:16:35.707Z,38.85
2019-05-01T16:17:40.459Z,40.48
2019-05-01T16:18:45.557Z,39.23
2019-05-01T16:19:50.570Z,38.30
2019-05-01T16:20:55.020Z,39.27
2019-05-01T16:22:00.053Z,37.78
2019-05-01T16:23:04.880Z,39.15
2019-05-01T16:24:09.577Z,40.08
2019-05-01T16:25:14.399Z,39.25
2019-05-01T16:26:19.077Z,37.65
2019-05-01T16:27:24.188Z,37.17
2019-05-01T16:28:29.187Z,38.15
2019-05-01T16:29:34.175Z,38.80
2019-05-01T16:30:39.454Z,38.35
2019-05-01T16:31:44.455Z,39.05
2019-05-01T16:32:49.476Z,39.70
2019-05-01T16:33:54.765Z,38.98
2019-05-01T16:34:59.485Z,38.55
2019-05-01T16:36:04.469Z,37.13
2019-05-01T16:37:09.305Z,38.58
2019-05-01T16:38:23.008Z,37.70
2019-05-01T16:39:52.755Z,40.25
2019-05-01T16:41:02.078Z,39.35
2019-05-01T16:42:07.042Z,39.27
2019-05-01T16:43:12.859Z,37.83
2019-05-01T16:44:17.617Z,39.92
2019-05-01T16:45:22.429Z,39.10
2019-05-01T16:46:27.470Z,39.23
2019-05-01T16:47:32.725Z,38.80
2019-05-01T16:48:38.004Z,39.63
2019-05-01T16:49:42.993Z,39.60
2019-05-01T16:50:48.011Z,39.40
2019-05-01T16:51:53.346Z,38.70
2019-05-01T16:52:58.051Z,39.85
2019-05-01T16:54:03.184Z,41.00
2019-05-01T16:55:09.122Z,39.53
2019-05-01T16:56:14.165Z,38.63
2019-05-01T16:57:19.454Z,38.60
2019-05-01T16:58:25.215Z,40.43
2019-05-01T16:59:29.985Z,38.65
2019-05-01T17:00:58.529Z,39.95
2019-05-01T17:02:21.149Z,38.53
2019-05-01T17:03:31.158Z,38.53
2019-05-01T17:05:01.070Z,37.55
2019-05-01T17:06:27.418Z,38.10
2019-05-01T17:07:43.042Z,38.58
2019-05-01T17:09:00.141Z,38.65
2019-05-01T17:10:14.142Z,38.33
2019-05-01T17:11:21.022Z,38.15
2019-05-01T17:12:29.894Z,38.23
2019-05-01T17:13:35.070Z,39.50
2019-05-01T17:14:39.964Z,38.50
2019-05-01T17:15:48.476Z,38.48
2019-05-01T17:16:53.578Z,38.45
2019-05-01T17:17:58.558Z,38.00
2019-05-01T17:19:04.547Z,38.90
2019-05-01T17:20:09.373Z,39.15
2019-05-01T17:21:13.853Z,39.55
2019-05-01T17:22:18.815Z,38.92
2019-05-01T17:23:23.809Z,39.53
2019-05-01T17:24:29.055Z,39.53
2019-05-01T17:25:34.311Z,39.55
2019-05-01T17:26:39.427Z,40.75
2019-05-01T17:27:44.709Z,39.73
2019-05-01T17:28:49.941Z,40.20
2019-05-01T17:29:55.215Z,40.45
2019-05-01T17:31:01.352Z,39.50
2019-05-01T17:32:07.073Z,38.70
2019-05-01T17:33:19.527Z,38.45
2019-05-01T17:34:18.836Z,40.45
2019-05-01T17:35:23.823Z,40.48
2019-05-01T17:36:29.071Z,39.63
2019-05-01T17:37:34.343Z,40.08
2019-05-01T17:38:48.919Z,40.80
2019-05-01T17:39:45.893Z,39.60
2019-05-01T17:40:52.165Z,38.73
2019-05-01T17:41:57.606Z,39.55
2019-05-01T17:43:08.016Z,40.35
2019-05-01T17:44:10.814Z,40.23
2019-05-01T17:45:15.624Z,39.88
2019-05-01T17:46:20.105Z,40.35
2019-05-01T17:47:26.956Z,39.40
2019-05-01T17:48:33.778Z,41.37
2019-05-01T17:49:41.058Z,39.78
2019-05-01T17:50:44.594Z,40.08
2019-05-01T17:51:49.607Z,40.95
2019-05-01T17:52:54.600Z,39.60
2019-05-01T17:53:59.610Z,40.43
2019-05-01T17:55:04.183Z,40.12
2019-05-01T17:56:10.236Z,41.92
2019-05-01T17:57:16.127Z,41.00
2019-05-01T17:58:21.668Z,41.50
2019-05-01T17:59:26.710Z,41.50
2019-05-01T18:00:43.507Z,40.50
2019-05-01T18:02:16.045Z,42.25
2019-05-01T18:03:39.401Z,39.48
2019-05-01T18:05:03.559Z,41.02
2019-05-01T18:06:11.020Z,39.13
2019-05-01T18:07:16.308Z,39.50
2019-05-01T18:08:20.770Z,39.90
2019-05-01T18:09:25.482Z,40.10
2019-05-01T18:10:34.129Z,39.60
2019-05-01T18:11:36.668Z,40.25
2019-05-01T18:12:41.676Z,40.88
2019-05-01T18:13:46.404Z,39.85
2019-05-01T18:14:52.012Z,39.13
2019-05-01T18:15:56.980Z,40.45
2019-05-01T18:17:02.246Z,41.30
2019-05-01T18:18:10.706Z,38.92
2019-05-01T18:19:13.215Z,39.30
2019-05-01T18:20:18.221Z,40.43
2019-05-01T18:21:23.554Z,39.45
2019-05-01T18:22:46.214Z,40.83
2019-05-01T18:24:25.101Z,40.00
2019-05-01T18:25:40.631Z,38.80
2019-05-01T18:26:51.851Z,41.33
2019-05-01T18:28:05.753Z,40.15
2019-05-01T18:29:21.454Z,40.25
2019-05-01T18:30:31.649Z,41.15
2019-05-01T18:31:36.148Z,40.55
2019-05-01T18:32:47.552Z,40.98
2019-05-01T18:33:50.630Z,40.48
2019-05-01T18:34:55.354Z,41.60
2019-05-01T18:36:00.411Z,40.75
2019-05-01T18:37:13.743Z,41.35
2019-05-01T18:38:37.062Z,41.23
2019-05-01T18:39:42.172Z,40.98
2019-05-01T18:40:49.758Z,42.48
2019-05-01T18:41:57.881Z,39.65
2019-05-01T18:43:02.332Z,40.52
2019-05-01T18:44:10.038Z,42.08
2019-05-01T18:45:20.170Z,40.25
2019-05-01T18:46:25.779Z,40.75
2019-05-01T18:47:31.027Z,43.02
2019-05-01T18:48:35.742Z,40.78
2019-05-01T18:49:41.052Z,40.23
2019-05-01T18:50:49.512Z,41.35
2019-05-01T18:51:53.165Z,41.65
2019-05-01T18:52:58.134Z,40.90
2019-05-01T18:54:03.107Z,39.75
2019-05-01T18:55:07.810Z,41.88
2019-05-01T18:56:12.569Z,41.95
2019-05-01T18:57:17.559Z,41.92
2019-05-01T18:58:23.133Z,41.50
2019-05-01T18:59:28.480Z,40.95
2019-05-01T19:00:33.478Z,43.28
2019-05-01T19:01:37.977Z,41.98
2019-05-01T19:02:42.970Z,40.58
2019-05-01T19:03:48.283Z,41.83
2019-05-01T19:04:53.551Z,42.17
2019-05-01T19:05:58.335Z,43.55
2019-05-01T19:07:03.372Z,40.67
2019-05-01T19:08:08.109Z,41.92
2019-05-01T19:09:15.153Z,42.13
2019-05-01T19:10:19.981Z,43.17
2019-05-01T19:11:25.170Z,42.23
2019-05-01T19:12:31.363Z,42.53
2019-05-01T19:13:36.182Z,43.15
2019-05-01T19:14:41.030Z,41.90
2019-05-01T19:15:46.322Z,44.40
2019-05-01T19:16:50.819Z,41.90
2019-05-01T19:17:55.856Z,44.63
2019-05-01T19:19:00.306Z,43.05
2019-05-01T19:20:05.540Z,43.40
2019-05-01T19:21:11.435Z,43.05
2019-05-01T19:22:16.324Z,42.58
2019-05-01T19:23:22.077Z,43.28
2019-05-01T19:24:32.582Z,42.08
2019-05-01T19:25:35.455Z,43.05
2019-05-01T19:26:42.567Z,42.80
2019-05-01T19:27:47.193Z,42.08
2019-05-01T19:28:52.217Z,44.08
2019-05-01T19:29:57.989Z,40.98
2019-05-01T19:31:03.305Z,42.50
2019-05-01T19:32:08.431Z,41.98
2019-05-01T19:33:13.140Z,43.63
2019-05-01T19:34:18.151Z,42.30
2019-05-01T19:35:23.577Z,44.08
2019-05-01T19:36:29.924Z,42.78
2019-05-01T19:37:34.427Z,42.80
2019-05-01T19:38:39.988Z,42.50
2019-05-01T19:39:49.025Z,43.90
2019-05-01T19:40:50.967Z,42.38
2019-05-01T19:41:55.966Z,44.48
2019-05-01T19:43:01.037Z,42.62
2019-05-01T19:44:06.391Z,42.83
2019-05-01T19:45:11.315Z,45.28
2019-05-01T19:46:16.523Z,43.48
2019-05-01T19:47:21.283Z,44.98
2019-05-01T19:48:26.668Z,44.45
2019-05-01T19:49:31.852Z,48.68
2019-05-01T19:50:39.935Z,48.17
2019-05-01T19:51:44.214Z,47.80